createdAt,value
2023-02-11T00:01:11.147Z,16.48
2023-02-11T00:03:38.761Z,17.50
2023-02-11T00:06:10.129Z,17.60
2023-02-11T00:08:37.291Z,17.25
2023-02-11T00:11:04.350Z,18.33
2023-02-11T00:13:31.064Z,17.10
2023-02-11T00:15:57.840Z,17.60
2023-02-11T00:18:24.496Z,17.42
2023-02-11T00:20:51.171Z,16.90
2023-02-11T00:23:17.821Z,17.55
2023-02-11T00:25:45.499Z,17.92
2023-02-11T00:28:12.828Z,18.95
2023-02-11T00:30:39.773Z,19.05
2023-02-11T00:33:06.525Z,19.05
2023-02-11T00:35:33.223Z,17.83
2023-02-11T00:37:59.848Z,16.45
2023-02-11T00:40:26.587Z,18.30
2023-02-11T00:42:53.241Z,17.23
2023-02-11T00:45:21.146Z,15.65
2023-02-11T00:47:48.103Z,17.35
2023-02-11T00:50:14.813Z,17.33
2023-02-11T00:52:41.549Z,18.15
2023-02-11T00:55:08.368Z,17.65
2023-02-11T00:57:35.093Z,18.35
2023-02-11T01:00:01.797Z,18.80
2023-02-11T01:02:28.475Z,17.20
2023-02-11T01:04:55.257Z,18.55
2023-02-11T01:07:22.049Z,16.88
2023-02-11T01:09:48.671Z,17.42
2023-02-11T01:12:15.359Z,17.17
2023-02-11T01:14:42.024Z,18.08
2023-02-11T01:17:08.791Z,16.83
2023-02-11T01:19:37.285Z,19.27
2023-02-11T01:22:04.449Z,18.83
2023-02-11T01:24:31.090Z,18.67
2023-02-11T01:26:57.790Z,18.90
2023-02-11T01:29:25.363Z,17.45
2023-02-11T01:31:52.450Z,18.55
2023-02-11T01:34:19.096Z,19.40
2023-02-11T01:36:45.731Z,17.80
2023-02-11T01:39:12.400Z,17.65
2023-02-11T01:41:39.220Z,16.75
2023-02-11T01:44:31.924Z,17.98
2023-02-11T01:46:59.151Z,16.38
2023-02-11T01:49:37.942Z,16.95
2023-02-11T01:52:19.983Z,17.08
2023-02-11T01:55:09.673Z,18.15
2023-02-11T01:57:39.148Z,18.80
2023-02-11T02:00:24.100Z,16.55
2023-02-11T02:03:07.638Z,17.35
2023-02-11T02:05:59.679Z,16.77
2023-02-11T02:08:47.345Z,18.85
2023-02-11T02:11:14.040Z,18.25
2023-02-11T02:13:40.807Z,18.95
2023-02-11T02:16:16.124Z,17.63
2023-02-11T02:19:09.561Z,20.10
2023-02-11T02:21:57.318Z,18.80
2023-02-11T02:24:51.111Z,19.58
2023-02-11T02:28:00.955Z,18.98
2023-02-11T02:30:33.159Z,20.40
2023-02-11T02:33:32.198Z,17.33
2023-02-11T02:36:09.199Z,19.52
2023-02-11T02:38:44.913Z,18.45
2023-02-11T02:41:15.612Z,20.60
2023-02-11T02:43:49.165Z,19.45
2023-02-11T02:46:24.126Z,18.48
2023-02-11T02:48:55.027Z,19.40
2023-02-11T02:51:39.884Z,19.23
2023-02-11T02:54:48.436Z,19.33
2023-02-11T02:57:30.326Z,19.40
2023-02-11T03:00:28.333Z,20.35
2023-02-11T03:03:15.668Z,19.45
2023-02-11T03:05:56.041Z,19.08
2023-02-11T03:08:25.489Z,17.08
2023-02-11T03:10:54.222Z,21.23
2023-02-11T03:13:26.549Z,19.52
2023-02-11T03:15:57.142Z,20.30
2023-02-11T03:18:27.733Z,20.83
2023-02-11T03:20:55.062Z,19.95
2023-02-11T03:23:25.763Z,18.17
2023-02-11T03:26:13.602Z,20.38
2023-02-11T03:29:06.989Z,20.25
2023-02-11T03:31:51.737Z,19.95
2023-02-11T03:34:37.848Z,19.50
2023-02-11T03:37:17.778Z,20.45
2023-02-11T03:39:51.130Z,19.67
2023-02-11T03:42:19.284Z,19.98
2023-02-11T03:44:57.210Z,19.52
2023-02-11T03:47:27.867Z,22.02
2023-02-11T03:49:57.508Z,20.23
2023-02-11T03:52:25.863Z,19.83
2023-02-11T03:54:57.027Z,19.48
2023-02-11T03:57:23.977Z,19.27
2023-02-11T03:59:55.259Z,18.88
2023-02-11T04:02:27.221Z,18.52
2023-02-11T04:04:53.911Z,19.30
2023-02-11T04:07:20.875Z,18.58
2023-02-11T04:09:47.551Z,18.73
2023-02-11T04:12:14.294Z,19.73
2023-02-11T04:14:40.926Z,18.45
2023-02-11T04:17:07.613Z,19.85
2023-02-11T04:19:34.502Z,18.80
2023-02-11T04:22:01.422Z,17.83
2023-02-11T04:24:28.122Z,19.08
2023-02-11T04:26:54.879Z,17.43
2023-02-11T04:29:21.557Z,20.00
2023-02-11T04:31:48.681Z,19.88
2023-02-11T04:34:15.548Z,18.45
2023-02-11T04:36:42.577Z,20.13
2023-02-11T04:39:09.369Z,19.50
2023-02-11T04:41:36.122Z,19.90
2023-02-11T04:44:02.912Z,18.98
2023-02-11T04:46:29.671Z,19.75
2023-02-11T04:48:57.060Z,20.42
2023-02-11T04:51:23.970Z,18.13
2023-02-11T04:53:50.665Z,19.70
2023-02-11T04:56:17.325Z,18.65
2023-02-11T04:58:44.025Z,19.17
2023-02-11T05:01:13.072Z,19.83
2023-02-11T05:03:39.927Z,18.30
2023-02-11T05:06:06.997Z,17.85
2023-02-11T05:08:33.784Z,18.83
2023-02-11T05:11:02.090Z,19.25
2023-02-11T05:13:29.670Z,17.02
2023-02-11T05:15:56.468Z,19.45
2023-02-11T05:18:23.718Z,20.33
2023-02-11T05:20:50.361Z,20.02
2023-02-11T05:23:16.986Z,18.55
2023-02-11T05:25:43.661Z,17.27
2023-02-11T05:28:10.429Z,18.80
2023-02-11T05:30:37.103Z,18.65
2023-02-11T05:33:03.919Z,18.15
2023-02-11T05:35:30.581Z,17.35
2023-02-11T05:37:57.212Z,18.30
2023-02-11T05:40:23.876Z,18.10
2023-02-11T05:42:50.537Z,19.17
2023-02-11T05:45:17.255Z,18.90
2023-02-11T05:47:43.890Z,19.63
2023-02-11T05:50:10.536Z,18.63
2023-02-11T05:52:37.200Z,18.10
2023-02-11T05:55:04.388Z,18.55
2023-02-11T05:57:31.069Z,16.48
2023-02-11T05:59:57.676Z,18.98
2023-02-11T06:02:24.448Z,18.05
2023-02-11T06:04:51.167Z,17.92
2023-02-11T06:07:19.677Z,17.98
2023-02-11T06:09:46.329Z,18.38
2023-02-11T06:12:13.016Z,17.85
2023-02-11T06:14:39.646Z,17.73
2023-02-11T06:17:06.579Z,18.15
2023-02-11T06:19:33.370Z,18.80
2023-02-11T06:22:00.102Z,19.33
2023-02-11T06:24:48.127Z,18.23
2023-02-11T06:27:13.433Z,16.90
2023-02-11T06:29:40.122Z,17.92
2023-02-11T06:32:08.658Z,17.48
2023-02-11T06:34:38.552Z,17.77
2023-02-11T06:37:05.590Z,17.17
2023-02-11T06:39:32.789Z,17.42
2023-02-11T06:41:59.772Z,17.30
2023-02-11T06:44:26.486Z,18.30
2023-02-11T06:46:53.268Z,16.52
2023-02-11T06:49:19.950Z,18.92
2023-02-11T06:51:46.575Z,19.02
2023-02-11T06:54:13.287Z,18.55
2023-02-11T06:56:41.134Z,17.58
2023-02-11T06:59:07.808Z,18.25
2023-02-11T07:01:34.571Z,18.05
2023-02-11T07:04:01.213Z,18.08
2023-02-11T07:06:28.271Z,17.58
2023-02-11T07:08:55.663Z,19.45
2023-02-11T07:11:24.970Z,17.73
2023-02-11T07:13:53.067Z,18.20
2023-02-11T07:16:20.299Z,19.42
2023-02-11T07:18:48.305Z,17.25
2023-02-11T07:21:18.068Z,18.50
2023-02-11T07:23:45.125Z,16.15
2023-02-11T07:26:14.415Z,19.00
2023-02-11T07:28:41.712Z,18.65
2023-02-11T07:31:10.737Z,18.73
2023-02-11T07:33:38.293Z,16.67
2023-02-11T07:36:07.106Z,17.67
2023-02-11T07:38:34.845Z,17.13
2023-02-11T07:41:02.646Z,17.02
2023-02-11T07:43:30.697Z,17.13
2023-02-11T07:45:59.062Z,18.10
2023-02-11T07:48:25.798Z,18.80
2023-02-11T07:50:52.397Z,16.98
2023-02-11T07:53:19.078Z,16.77
2023-02-11T07:55:45.812Z,17.58
2023-02-11T07:58:12.744Z,17.33
2023-02-11T08:00:39.487Z,17.48
2023-02-11T08:03:08.290Z,17.25
2023-02-11T08:05:38.648Z,18.83
2023-02-11T08:08:05.281Z,17.60
2023-02-11T08:10:31.980Z,18.67
2023-02-11T08:12:58.681Z,19.15
2023-02-11T08:15:25.369Z,19.58
2023-02-11T08:17:52.025Z,17.52
2023-02-11T08:20:18.766Z,18.63
2023-02-11T08:22:45.451Z,18.38
2023-02-11T08:25:12.101Z,17.83
2023-02-11T08:27:38.822Z,18.73
2023-02-11T08:30:05.931Z,18.23
2023-02-11T08:32:35.173Z,17.42
2023-02-11T08:35:01.930Z,18.73
2023-02-11T08:37:28.910Z,18.65
2023-02-11T08:39:56.588Z,18.30
2023-02-11T08:42:23.207Z,18.65
2023-02-11T08:44:49.798Z,18.17
2023-02-11T08:47:16.539Z,19.40
2023-02-11T08:49:43.255Z,17.85
2023-02-11T08:52:10.388Z,17.08
2023-02-11T08:54:37.334Z,18.92
2023-02-11T08:57:04.646Z,18.90
2023-02-11T08:59:31.373Z,19.73
2023-02-11T09:01:58.323Z,18.05
2023-02-11T09:04:25.044Z,17.80
2023-02-11T09:06:51.790Z,18.27
2023-02-11T09:09:18.415Z,18.42
2023-02-11T09:11:45.551Z,17.25
2023-02-11T09:14:22.435Z,19.25
2023-02-11T09:16:49.435Z,18.88
2023-02-11T09:19:17.349Z,17.65
2023-02-11T09:21:44.614Z,18.25
2023-02-11T09:24:11.906Z,19.15
2023-02-11T09:26:42.335Z,17.30
2023-02-11T09:29:09.400Z,20.50
2023-02-11T09:31:36.251Z,18.95
2023-02-11T09:34:05.165Z,17.30
2023-02-11T09:36:37.360Z,18.95
2023-02-11T09:39:06.092Z,17.83
2023-02-11T09:41:49.282Z,17.42
2023-02-11T09:44:23.036Z,18.85
2023-02-11T09:46:57.711Z,17.73
2023-02-11T09:49:46.897Z,17.30
2023-02-11T09:52:38.366Z,19.30
2023-02-11T09:55:21.656Z,17.45
2023-02-11T09:57:48.740Z,16.90
2023-02-11T10:00:34.033Z,18.42
2023-02-11T10:03:25.359Z,17.00
2023-02-11T10:06:16.770Z,17.17
2023-02-11T10:09:08.302Z,18.65
2023-02-11T10:11:56.116Z,18.25
2023-02-11T10:14:55.924Z,16.75
2023-02-11T10:17:35.085Z,17.52
2023-02-11T10:20:21.974Z,17.70
2023-02-11T10:23:21.048Z,16.95
2023-02-11T10:25:54.455Z,16.50
2023-02-11T10:28:24.920Z,16.88
2023-02-11T10:30:59.599Z,16.77
2023-02-11T10:33:37.396Z,17.65
2023-02-11T10:36:05.005Z,17.70
2023-02-11T10:38:33.761Z,16.88
2023-02-11T10:41:00.462Z,17.65
2023-02-11T10:43:30.697Z,18.15
2023-02-11T10:46:02.732Z,17.35
2023-02-11T10:48:43.488Z,17.27
2023-02-11T10:51:14.614Z,17.70
2023-02-11T10:53:41.511Z,16.10
2023-02-11T10:56:11.443Z,17.45
2023-02-11T10:58:55.559Z,17.88
2023-02-11T11:01:24.725Z,17.08
2023-02-11T11:03:52.867Z,17.13
2023-02-11T11:06:31.680Z,17.55
2023-02-11T11:08:58.720Z,16.35
2023-02-11T11:11:26.498Z,18.77
2023-02-11T11:13:53.160Z,17.40
2023-02-11T11:16:21.957Z,17.60
2023-02-11T11:18:51.628Z,16.98
2023-02-11T11:21:22.979Z,16.38
2023-02-11T11:23:53.667Z,17.25
2023-02-11T11:26:21.369Z,17.17
2023-02-11T11:28:56.305Z,17.08
2023-02-11T11:31:33.408Z,18.42
2023-02-11T11:34:03.554Z,17.95
2023-02-11T11:36:39.569Z,20.55
2023-02-11T11:39:46.408Z,16.33
2023-02-11T11:42:33.442Z,16.05
2023-02-11T11:45:24.700Z,15.85
2023-02-11T11:47:59.926Z,17.27
2023-02-11T11:50:30.963Z,17.45
2023-02-11T11:53:22.390Z,16.42
2023-02-11T11:56:03.563Z,18.20
2023-02-11T11:58:31.596Z,17.02
2023-02-11T12:01:24.946Z,17.15
2023-02-11T12:04:24.621Z,15.98
2023-02-11T12:07:12.047Z,16.20
2023-02-11T12:09:55.401Z,16.35
2023-02-11T12:12:46.730Z,17.05
2023-02-11T12:15:41.097Z,15.23
2023-02-11T12:18:07.668Z,14.90
2023-02-11T12:21:03.346Z,17.80
2023-02-11T12:23:48.430Z,16.10
2023-02-11T12:26:18.310Z,16.80
2023-02-11T12:29:23.216Z,16.65
2023-02-11T12:32:07.050Z,15.93
2023-02-11T12:34:55.701Z,15.98
2023-02-11T12:38:00.047Z,15.52
2023-02-11T12:40:46.273Z,16.60
2023-02-11T12:43:23.963Z,15.88
2023-02-11T12:46:21.677Z,16.27
2023-02-11T12:49:10.157Z,15.98
2023-02-11T12:51:42.753Z,16.40
2023-02-11T12:57:25.532Z,16.60
2023-02-11T13:00:22.928Z,15.95
2023-02-11T13:03:11.305Z,16.90
2023-02-11T13:05:49.518Z,16.38
2023-02-11T13:08:36.128Z,16.13
2023-02-11T13:11:08.308Z,16.52
2023-02-11T13:13:55.064Z,15.20
2023-02-11T13:16:24.917Z,17.10
2023-02-11T13:19:01.127Z,15.50
2023-02-11T13:21:54.728Z,15.98
2023-02-11T13:24:59.745Z,15.70
2023-02-11T13:28:01.293Z,14.90
2023-02-11T13:30:32.958Z,16.20
2023-02-11T13:33:00.877Z,15.32
2023-02-11T13:35:32.398Z,16.13
2023-02-11T13:38:21.437Z,15.65
2023-02-11T13:41:21.008Z,16.30
2023-02-11T13:43:59.993Z,18.10
2023-02-11T13:48:56.677Z,14.02
2023-02-11T13:51:42.272Z,15.40
2023-02-11T13:54:22.305Z,15.25
2023-02-11T13:57:20.838Z,14.15
2023-02-11T13:59:53.086Z,13.38
2023-02-11T14:02:41.861Z,13.43
2023-02-11T14:05:26.953Z,14.48
2023-02-11T14:08:30.573Z,15.40
2023-02-11T14:11:08.561Z,15.23
2023-02-11T14:14:03.020Z,14.43
2023-02-11T14:16:37.835Z,14.18
2023-02-11T14:19:06.138Z,15.38
2023-02-11T14:21:40.294Z,15.75
2023-02-11T14:24:10.796Z,15.48
2023-02-11T14:27:09.793Z,13.57
2023-02-11T14:30:08.478Z,15.27
2023-02-11T14:33:12.386Z,13.95
2023-02-11T14:36:08.689Z,12.65
2023-02-11T14:39:14.581Z,14.27
2023-02-11T14:41:44.052Z,14.40
2023-02-11T14:44:21.290Z,14.23
2023-02-11T14:46:50.740Z,13.30
2023-02-11T14:49:37.738Z,15.40
2023-02-11T14:52:26.531Z,13.40
2023-02-11T14:55:14.815Z,14.40
2023-02-11T14:57:44.412Z,13.75
2023-02-11T15:00:18.755Z,15.63
2023-02-11T15:02:45.577Z,16.80
2023-02-11T15:05:19.899Z,17.23
2023-02-11T15:07:49.538Z,18.08
2023-02-11T15:10:20.939Z,16.80
2023-02-11T15:12:49.158Z,17.45
2023-02-11T15:15:16.596Z,17.63
2023-02-11T15:17:54.249Z,15.95
2023-02-11T15:20:28.257Z,15.15
2023-02-11T15:23:04.889Z,15.18
2023-02-11T15:25:34.055Z,16.52
2023-02-11T15:28:01.059Z,15.85
2023-02-11T15:30:32.200Z,15.98
2023-02-11T15:33:02.850Z,14.35
2023-02-11T15:35:36.580Z,16.13
2023-02-11T15:38:04.264Z,14.85
2023-02-11T15:40:33.508Z,15.13
2023-02-11T15:43:00.244Z,14.30
2023-02-11T15:45:33.844Z,15.07
2023-02-11T15:48:14.585Z,12.55
2023-02-11T15:50:43.006Z,13.85
2023-02-11T15:53:21.962Z,14.10
2023-02-11T15:55:51.572Z,13.82
2023-02-11T15:58:18.680Z,13.48
2023-02-11T16:00:48.624Z,12.95
2023-02-11T16:03:24.792Z,14.27
2023-02-11T16:05:51.962Z,15.35
2023-02-11T16:08:29.292Z,15.02
2023-02-11T16:11:03.209Z,15.00
2023-02-11T16:13:33.636Z,16.92
2023-02-11T16:16:04.628Z,15.65
2023-02-11T16:18:40.442Z,13.93
2023-02-11T16:21:15.931Z,11.98
2023-02-11T16:23:49.040Z,10.65
2023-02-11T16:26:35.945Z,10.95
2023-02-11T16:29:15.313Z,10.27
2023-02-11T16:31:45.202Z,10.07
2023-02-11T16:34:20.541Z,9.57
2023-02-11T16:36:47.965Z,9.57
2023-02-11T16:39:16.762Z,9.77
2023-02-11T16:41:43.522Z,10.38
2023-02-11T16:44:10.210Z,9.35
2023-02-11T16:46:37.287Z,10.35
2023-02-11T16:49:28.448Z,10.55
2023-02-11T16:51:58.517Z,8.95
2023-02-11T16:54:25.273Z,9.27
2023-02-11T16:56:51.895Z,9.05
2023-02-11T16:59:18.638Z,10.00
2023-02-11T17:01:46.652Z,9.07
2023-02-11T17:04:24.407Z,9.20
2023-02-11T17:06:51.289Z,7.07
2023-02-11T17:09:27.755Z,8.05
2023-02-11T17:11:55.638Z,9.80
2023-02-11T17:14:22.269Z,8.00
2023-02-11T17:16:49.040Z,8.02
2023-02-11T17:19:17.638Z,7.95
2023-02-11T17:21:45.920Z,8.38
2023-02-11T17:24:14.975Z,8.60
2023-02-11T17:26:44.129Z,9.70
2023-02-11T17:29:17.247Z,8.98
2023-02-11T17:31:44.136Z,8.10
2023-02-11T17:34:11.203Z,9.60
2023-02-11T17:36:37.939Z,9.40
2023-02-11T17:39:08.114Z,9.40
2023-02-11T17:41:37.474Z,8.32
2023-02-11T17:44:04.905Z,8.65
2023-02-11T17:46:32.276Z,9.35
2023-02-11T17:48:59.510Z,9.90
2023-02-11T17:51:28.724Z,9.32
2023-02-11T17:53:58.073Z,10.48
2023-02-11T17:56:25.092Z,10.80
2023-02-11T17:58:52.983Z,8.07
2023-02-11T18:01:20.052Z,9.57
2023-02-11T18:03:46.821Z,10.35
2023-02-11T18:06:13.498Z,8.30
2023-02-11T18:08:41.766Z,8.90
2023-02-11T18:11:13.448Z,9.82
2023-02-11T18:13:40.154Z,8.73
2023-02-11T18:16:15.734Z,9.75
2023-02-11T18:18:43.648Z,9.60
2023-02-11T18:21:18.326Z,9.98
2023-02-11T18:23:46.052Z,11.23
2023-02-11T18:26:13.870Z,9.38
2023-02-11T18:28:43.215Z,8.82
2023-02-11T18:31:11.923Z,9.98
2023-02-11T18:33:39.753Z,9.90
2023-02-11T18:36:08.937Z,10.00
2023-02-11T18:38:36.156Z,10.65
2023-02-11T18:41:03.270Z,8.63
2023-02-11T18:43:31.712Z,8.68
2023-02-11T18:45:58.480Z,8.90
2023-02-11T18:48:28.543Z,9.65
2023-02-11T18:50:55.707Z,9.10
2023-02-11T18:53:24.441Z,9.55
2023-02-11T18:55:52.563Z,9.25
2023-02-11T18:58:21.153Z,10.10
2023-02-11T19:00:48.471Z,10.52
2023-02-11T19:03:15.267Z,10.38
2023-02-11T19:05:47.607Z,9.43
2023-02-11T19:08:15.362Z,9.55
2023-02-11T19:10:46.977Z,10.88
2023-02-11T19:13:14.524Z,9.80
2023-02-11T19:15:45.614Z,10.85
2023-02-11T19:18:14.582Z,9.77
2023-02-11T19:20:43.058Z,10.73
2023-02-11T19:23:10.314Z,10.23
2023-02-11T19:25:37.662Z,9.00
2023-02-11T19:28:05.058Z,9.48
2023-02-11T19:30:31.719Z,10.48
2023-02-11T19:32:58.455Z,11.88
2023-02-11T19:35:25.690Z,9.23
2023-02-11T19:37:52.766Z,9.60
2023-02-11T19:40:21.191Z,10.88
2023-02-11T19:42:48.227Z,10.73
2023-02-11T19:45:15.089Z,10.85
2023-02-11T19:47:41.811Z,10.65
2023-02-11T19:50:08.968Z,10.95
2023-02-11T19:52:38.543Z,11.68
2023-02-11T19:55:05.629Z,10.43
2023-02-11T19:57:32.286Z,10.32
2023-02-11T19:59:59.492Z,9.82
2023-02-11T20:02:26.230Z,11.32
2023-02-11T20:04:52.997Z,12.93
2023-02-11T20:07:19.697Z,12.85
2023-02-11T20:09:46.326Z,12.48
2023-02-11T20:12:13.046Z,11.55
2023-02-11T20:14:39.737Z,12.75
2023-02-11T20:17:06.436Z,13.00
2023-02-11T20:19:33.257Z,12.75
2023-02-11T20:22:00.032Z,12.02
2023-02-11T20:24:26.913Z,11.02
2023-02-11T20:26:56.897Z,12.55
2023-02-11T20:29:25.906Z,12.65
2023-02-11T20:31:52.949Z,11.27
2023-02-11T20:34:21.045Z,10.77
2023-02-11T20:36:56.426Z,13.57
2023-02-11T20:39:24.645Z,12.30
2023-02-11T20:41:53.236Z,12.25
2023-02-11T20:44:22.195Z,11.63
2023-02-11T20:46:49.701Z,13.18
2023-02-11T20:49:19.366Z,16.13
2023-02-11T20:51:46.315Z,12.80
2023-02-11T20:54:14.898Z,15.20
2023-02-11T20:56:42.211Z,14.68
2023-02-11T20:59:09.580Z,13.98
2023-02-11T21:01:40.656Z,12.73
2023-02-11T21:04:13.545Z,13.43
2023-02-11T21:06:43.823Z,14.13
2023-02-11T21:09:17.375Z,15.23
2023-02-11T21:11:44.129Z,13.05
2023-02-11T21:14:12.038Z,14.15
2023-02-11T21:16:39.148Z,12.43
2023-02-11T21:19:06.632Z,14.32
2023-02-11T21:21:35.964Z,14.73
2023-02-11T21:24:02.765Z,13.52
2023-02-11T21:26:29.479Z,15.55
2023-02-11T21:28:56.305Z,15.23
2023-02-11T21:31:25.965Z,15.82
2023-02-11T21:33:55.063Z,13.98
2023-02-11T21:36:22.801Z,15.25
2023-02-11T21:38:50.050Z,14.32
2023-02-11T21:41:18.408Z,16.80
2023-02-11T21:43:45.224Z,18.52
2023-02-11T21:46:14.883Z,17.45
2023-02-11T21:48:42.111Z,17.88
2023-02-11T21:51:14.616Z,16.00
2023-02-11T21:53:41.286Z,16.15
2023-02-11T21:56:18.761Z,15.40
2023-02-11T21:58:46.323Z,15.55
2023-02-11T22:01:25.848Z,16.05
2023-02-11T22:03:53.154Z,17.10
2023-02-11T22:06:31.012Z,17.50
2023-02-11T22:08:58.526Z,15.63
2023-02-11T22:11:25.293Z,14.88
2023-02-11T22:13:56.373Z,17.33
2023-02-11T22:16:24.411Z,15.80
2023-02-11T22:18:51.505Z,16.10
2023-02-11T22:21:21.912Z,14.52
2023-02-11T22:23:49.100Z,16.52
2023-02-11T22:26:21.193Z,14.60
2023-02-11T22:28:48.423Z,15.55
2023-02-11T22:31:17.916Z,15.68
2023-02-11T22:33:45.685Z,15.27
2023-02-11T22:36:23.735Z,13.82
2023-02-11T22:38:50.983Z,12.82
2023-02-11T22:41:18.041Z,14.30
2023-02-11T22:43:45.234Z,14.13
2023-02-11T22:46:14.707Z,14.52
2023-02-11T22:48:41.458Z,15.55
2023-02-11T22:51:10.516Z,16.35
2023-02-11T22:53:37.439Z,14.57
2023-02-11T22:56:15.029Z,15.13
2023-02-11T22:58:42.088Z,16.52
2023-02-11T23:01:08.820Z,15.35
2023-02-11T23:03:35.709Z,17.02
2023-02-11T23:06:02.858Z,15.35
2023-02-11T23:08:30.354Z,14.10
2023-02-11T23:10:57.241Z,15.77
2023-02-11T23:13:23.952Z,15.60
2023-02-11T23:15:50.635Z,16.83
2023-02-11T23:18:17.366Z,15.07
2023-02-11T23:20:44.937Z,12.80
2023-02-11T23:23:12.209Z,14.25
2023-02-11T23:25:43.724Z,14.57
2023-02-11T23:28:11.684Z,13.07
2023-02-11T23:30:39.561Z,13.38
2023-02-11T23:33:06.323Z,14.05
2023-02-11T23:35:33.129Z,14.60
2023-02-11T23:37:59.835Z,14.27
2023-02-11T23:40:26.579Z,14.80
2023-02-11T23:42:53.377Z,14.43
2023-02-11T23:45:20.169Z,13.57
2023-02-11T23:47:47.603Z,12.52
2023-02-11T23:50:14.481Z,13.55
2023-02-11T23:52:41.418Z,14.13
2023-02-11T23:55:11.366Z,14.10
2023-02-11T23:57:38.490Z,14.55
